sensor_id;sensor_type;location;lat;lon;timestamp;temperature;humidity
66582;SHT31;53438;48.898;2.308;2023-05-13T03:00:11;13.14;86.42
66582;SHT31;53438;48.898;2.308;2023-05-13T03:02:36;13.22;86.29
66582;SHT31;53438;48.898;2.308;2023-05-13T03:05:02;13.22;86.24
66582;SHT31;53438;48.898;2.308;2023-05-13T03:07:28;13.24;86.19
66582;SHT31;53438;48.898;2.308;2023-05-13T03:09:53;13.24;86.28
66582;SHT31;53438;48.898;2.308;2023-05-13T03:12:19;13.28;86.11
66582;SHT31;53438;48.898;2.308;2023-05-13T03:14:44;13.29;86.06
66582;SHT31;53438;48.898;2.308;2023-05-13T03:17:10;13.26;86.15
66582;SHT31;53438;48.898;2.308;2023-05-13T03:19:36;13.24;86.38
66582;SHT31;53438;48.898;2.308;2023-05-13T03:22:02;13.24;86.35
66582;SHT31;53438;48.898;2.308;2023-05-13T03:24:28;13.43;86.05
66582;SHT31;53438;48.898;2.308;2023-05-13T03:26:54;13.48;85.98
66582;SHT31;53438;48.898;2.308;2023-05-13T03:29:20;13.34;85.94
66582;SHT31;53438;48.898;2.308;2023-05-13T03:31:45;13.38;86.09
66582;SHT31;53438;48.898;2.308;2023-05-13T03:34:10;13.34;86.23
66582;SHT31;53438;48.898;2.308;2023-05-13T03:36:36;13.38;86.10
66582;SHT31;53438;48.898;2.308;2023-05-13T03:39:01;13.35;86.32
66582;SHT31;53438;48.898;2.308;2023-05-13T03:41:27;13.41;86.15
66582;SHT31;53438;48.898;2.308;2023-05-13T03:43:53;13.48;86.09
66582;SHT31;53438;48.898;2.308;2023-05-13T03:46:18;13.41;86.44
66582;SHT31;53438;48.898;2.308;2023-05-13T03:48:44;13.39;86.43
66582;SHT31;53438;48.898;2.308;2023-05-13T03:51:09;13.48;86.27
66582;SHT31;53438;48.898;2.308;2023-05-13T03:53:35;13.45;86.35
66582;SHT31;53438;48.898;2.308;2023-05-13T03:56:00;13.31;87.00
66582;SHT31;53438;48.898;2.308;2023-05-13T03:58:27;13.48;86.66
66582;SHT31;53438;48.898;2.308;2023-05-13T04:00:52;13.55;86.25
66582;SHT31;53438;48.898;2.308;2023-05-13T04:03:17;13.36;87.06
66582;SHT31;53438;48.898;2.308;2023-05-13T04:05:46;13.26;87.36
66582;SHT31;53438;48.898;2.308;2023-05-13T04:08:12;13.21;87.71
66582;SHT31;53438;48.898;2.308;2023-05-13T04:10:38;13.18;87.63
66582;SHT31;53438;48.898;2.308;2023-05-13T04:13:03;13.22;87.43
66582;SHT31;53438;48.898;2.308;2023-05-13T04:15:29;13.28;87.20
66582;SHT31;53438;48.898;2.308;2023-05-13T04:17:56;13.26;87.35
66582;SHT31;53438;48.898;2.308;2023-05-13T04:20:22;13.36;87.00
66582;SHT31;53438;48.898;2.308;2023-05-13T04:22:47;13.48;86.71
66582;SHT31;53438;48.898;2.308;2023-05-13T04:25:12;13.29;86.86
66582;SHT31;53438;48.898;2.308;2023-05-13T04:27:38;13.43;86.72
66582;SHT31;53438;48.898;2.308;2023-05-13T04:30:04;13.39;86.41
66582;SHT31;53438;48.898;2.308;2023-05-13T04:32:30;13.35;86.55
66582;SHT31;53438;48.898;2.308;2023-05-13T04:34:55;13.36;86.52
66582;SHT31;53438;48.898;2.308;2023-05-13T04:37:20;13.36;86.39
66582;SHT31;53438;48.898;2.308;2023-05-13T04:39:46;13.55;85.62
66582;SHT31;53438;48.898;2.308;2023-05-13T04:42:15;13.45;85.63
66582;SHT31;53438;48.898;2.308;2023-05-13T04:44:41;13.53;85.23
66582;SHT31;53438;48.898;2.308;2023-05-13T04:47:06;13.49;85.50
66582;SHT31;53438;48.898;2.308;2023-05-13T04:49:31;13.45;85.27
66582;SHT31;53438;48.898;2.308;2023-05-13T04:51:57;13.38;85.48
66582;SHT31;53438;48.898;2.308;2023-05-13T04:54:22;13.53;85.17
66582;SHT31;53438;48.898;2.308;2023-05-13T04:56:47;13.43;85.08
66582;SHT31;53438;48.898;2.308;2023-05-13T04:59:13;13.48;84.95
66582;SHT31;53438;48.898;2.308;2023-05-13T05:01:38;13.46;84.78
66582;SHT31;53438;48.898;2.308;2023-05-13T05:04:04;13.42;84.91
66582;SHT31;53438;48.898;2.308;2023-05-13T05:06:30;13.51;84.60
66582;SHT31;53438;48.898;2.308;2023-05-13T05:08:57;13.34;85.19
66582;SHT31;53438;48.898;2.308;2023-05-13T05:11:22;13.42;84.67
66582;SHT31;53438;48.898;2.308;2023-05-13T05:13:47;13.45;84.41
66582;SHT31;53438;48.898;2.308;2023-05-13T05:16:13;13.45;84.47
66582;SHT31;53438;48.898;2.308;2023-05-13T05:18:38;13.59;84.16
66582;SHT31;53438;48.898;2.308;2023-05-13T05:21:05;13.52;83.93
66582;SHT31;53438;48.898;2.308;2023-05-13T05:23:31;13.53;83.70
66582;SHT31;53438;48.898;2.308;2023-05-13T05:25:56;13.67;83.23
66582;SHT31;53438;48.898;2.308;2023-05-13T05:28:24;13.66;83.34
66582;SHT31;53438;48.898;2.308;2023-05-13T05:30:50;13.73;83.08
66582;SHT31;53438;48.898;2.308;2023-05-13T05:33:15;13.55;83.58
66582;SHT31;53438;48.898;2.308;2023-05-13T05:35:41;13.76;82.72
66582;SHT31;53438;48.898;2.308;2023-05-13T05:38:06;13.72;82.75
66582;SHT31;53438;48.898;2.308;2023-05-13T05:40:35;13.69;82.99
66582;SHT31;53438;48.898;2.308;2023-05-13T05:43:01;13.63;83.03
66582;SHT31;53438;48.898;2.308;2023-05-13T05:45:27;13.66;83.00
66582;SHT31;53438;48.898;2.308;2023-05-13T05:47:54;13.76;82.64
66582;SHT31;53438;48.898;2.308;2023-05-13T05:50:21;13.62;82.83
66582;SHT31;53438;48.898;2.308;2023-05-13T05:52:48;13.70;82.72
66582;SHT31;53438;48.898;2.308;2023-05-13T05:55:13;13.61;82.96
66582;SHT31;53438;48.898;2.308;2023-05-13T05:57:39;13.38;83.18
66582;SHT31;53438;48.898;2.308;2023-05-13T06:00:05;13.73;82.55
66582;SHT31;53438;48.898;2.308;2023-05-13T06:02:31;13.77;82.23
66582;SHT31;53438;48.898;2.308;2023-05-13T06:04:56;13.74;81.99
66582;SHT31;53438;48.898;2.308;2023-05-13T06:07:21;13.84;82.18
66582;SHT31;53438;48.898;2.308;2023-05-13T06:09:47;13.97;81.66
66582;SHT31;53438;48.898;2.308;2023-05-13T06:12:12;14.07;81.42
66582;SHT31;53438;48.898;2.308;2023-05-13T06:14:37;14.18;81.01
66582;SHT31;53438;48.898;2.308;2023-05-13T06:17:03;14.06;81.06
66582;SHT31;53438;48.898;2.308;2023-05-13T06:19:28;14.28;80.54
66582;SHT31;53438;48.898;2.308;2023-05-13T06:21:53;14.32;80.09
66582;SHT31;53438;48.898;2.308;2023-05-13T06:24:19;14.31;80.22
66582;SHT31;53438;48.898;2.308;2023-05-13T06:26:44;14.25;80.13
66582;SHT31;53438;48.898;2.308;2023-05-13T06:29:10;14.20;80.77
66582;SHT31;53438;48.898;2.308;2023-05-13T06:31:35;14.13;80.86
66582;SHT31;53438;48.898;2.308;2023-05-13T06:34:01;14.23;80.62
66582;SHT31;53438;48.898;2.308;2023-05-13T06:36:26;14.17;80.83
66582;SHT31;53438;48.898;2.308;2023-05-13T06:38:52;14.03;81.15
66582;SHT31;53438;48.898;2.308;2023-05-13T06:41:17;14.11;81.18
66582;SHT31;53438;48.898;2.308;2023-05-13T06:43:43;14.42;80.40
66582;SHT31;53438;48.898;2.308;2023-05-13T06:46:10;14.48;80.09
66582;SHT31;53438;48.898;2.308;2023-05-13T06:48:35;14.54;79.64
66582;SHT31;53438;48.898;2.308;2023-05-13T06:51:01;14.73;78.82
66582;SHT31;53438;48.898;2.308;2023-05-13T06:53:26;14.81;78.60
66582;SHT31;53438;48.898;2.308;2023-05-13T06:55:51;14.88;78.38
66582;SHT31;53438;48.898;2.308;2023-05-13T06:58:17;14.93;77.97
66582;SHT31;53438;48.898;2.308;2023-05-13T07:00:42;14.76;78.18
66582;SHT31;53438;48.898;2.308;2023-05-13T07:03:09;14.92;77.92
66582;SHT31;53438;48.898;2.308;2023-05-13T07:05:35;14.61;78.93
66582;SHT31;53438;48.898;2.308;2023-05-13T07:08:01;14.83;78.46
66582;SHT31;53438;48.898;2.308;2023-05-13T07:10:33;15.02;77.83
66582;SHT31;53438;48.898;2.308;2023-05-13T07:13:02;15.02;77.26
66582;SHT31;53438;48.898;2.308;2023-05-13T07:15:27;14.98;77.61
66582;SHT31;53438;48.898;2.308;2023-05-13T07:17:53;15.00;77.49
66582;SHT31;53438;48.898;2.308;2023-05-13T07:20:18;14.93;77.60
66582;SHT31;53438;48.898;2.308;2023-05-13T07:22:47;15.02;77.38
66582;SHT31;53438;48.898;2.308;2023-05-13T07:25:13;14.86;77.70
66582;SHT31;53438;48.898;2.308;2023-05-13T07:27:38;14.91;77.83
66582;SHT31;53438;48.898;2.308;2023-05-13T07:30:04;14.91;77.89
66582;SHT31;53438;48.898;2.308;2023-05-13T07:32:30;14.49;79.44
66582;SHT31;53438;48.898;2.308;2023-05-13T07:34:55;14.55;79.35
66582;SHT31;53438;48.898;2.308;2023-05-13T07:37:21;14.44;79.22
66582;SHT31;53438;48.898;2.308;2023-05-13T07:39:47;14.49;79.75
66582;SHT31;53438;48.898;2.308;2023-05-13T07:42:12;14.67;78.90
66582;SHT31;53438;48.898;2.308;2023-05-13T07:44:39;14.76;78.82
66582;SHT31;53438;48.898;2.308;2023-05-13T07:47:04;14.71;78.93
66582;SHT31;53438;48.898;2.308;2023-05-13T07:49:30;14.81;78.74
66582;SHT31;53438;48.898;2.308;2023-05-13T07:51:55;14.85;78.51
66582;SHT31;53438;48.898;2.308;2023-05-13T07:54:21;14.96;78.44
66582;SHT31;53438;48.898;2.308;2023-05-13T07:56:46;14.93;78.43
66582;SHT31;53438;48.898;2.308;2023-05-13T07:59:12;14.82;78.90
66582;SHT31;53438;48.898;2.308;2023-05-13T08:01:37;14.61;79.80
66582;SHT31;53438;48.898;2.308;2023-05-13T08:04:03;14.86;79.09
66582;SHT31;53438;48.898;2.308;2023-05-13T08:06:28;14.86;79.16
66582;SHT31;53438;48.898;2.308;2023-05-13T08:08:53;14.83;78.68
66582;SHT31;53438;48.898;2.308;2023-05-13T08:11:20;14.79;79.10
66582;SHT31;53438;48.898;2.308;2023-05-13T08:13:45;14.89;78.74
66582;SHT31;53438;48.898;2.308;2023-05-13T08:16:11;15.02;78.63
66582;SHT31;53438;48.898;2.308;2023-05-13T08:18:36;14.91;78.85
66582;SHT31;53438;48.898;2.308;2023-05-13T08:21:02;15.03;78.32
66582;SHT31;53438;48.898;2.308;2023-05-13T08:23:28;15.03;78.14
66582;SHT31;53438;48.898;2.308;2023-05-13T08:25:53;15.14;77.68
66582;SHT31;53438;48.898;2.308;2023-05-13T08:28:18;15.29;77.34
66582;SHT31;53438;48.898;2.308;2023-05-13T08:30:44;15.31;77.28
66582;SHT31;53438;48.898;2.308;2023-05-13T08:33:10;15.31;77.39
66582;SHT31;53438;48.898;2.308;2023-05-13T08:35:36;15.30;77.38
66582;SHT31;53438;48.898;2.308;2023-05-13T08:38:01;15.47;77.04
66582;SHT31;53438;48.898;2.308;2023-05-13T08:40:29;15.58;76.41
66582;SHT31;53438;48.898;2.308;2023-05-13T08:42:56;15.60;76.12
66582;SHT31;53438;48.898;2.308;2023-05-13T08:45:25;15.55;76.06
66582;SHT31;53438;48.898;2.308;2023-05-13T08:48:00;15.78;75.37
66582;SHT31;53438;48.898;2.308;2023-05-13T08:50:29;15.82;75.14
66582;SHT31;53438;48.898;2.308;2023-05-13T08:52:56;15.82;75.01
66582;SHT31;53438;48.898;2.308;2023-05-13T08:55:22;15.75;75.31
66582;SHT31;53438;48.898;2.308;2023-05-13T08:57:48;15.26;76.84
66582;SHT31;53438;48.898;2.308;2023-05-13T09:00:14;15.55;76.17
66582;SHT31;53438;48.898;2.308;2023-05-13T09:02:40;15.39;76.50
66582;SHT31;53438;48.898;2.308;2023-05-13T09:05:07;15.27;76.59
66582;SHT31;53438;48.898;2.308;2023-05-13T09:07:34;15.53;76.20
66582;SHT31;53438;48.898;2.308;2023-05-13T09:10:00;15.77;75.23
66582;SHT31;53438;48.898;2.308;2023-05-13T09:12:51;15.78;74.99
66582;SHT31;53438;48.898;2.308;2023-05-13T09:15:18;15.85;74.44
66582;SHT31;53438;48.898;2.308;2023-05-13T09:17:48;15.90;74.57
66582;SHT31;53438;48.898;2.308;2023-05-13T09:20:16;15.95;73.80
66582;SHT31;53438;48.898;2.308;2023-05-13T09:22:49;16.04;73.86
66582;SHT31;53438;48.898;2.308;2023-05-13T09:25:15;16.05;73.89
66582;SHT31;53438;48.898;2.308;2023-05-13T09:27:45;15.46;75.69
66582;SHT31;53438;48.898;2.308;2023-05-13T09:30:11;15.54;75.58
66582;SHT31;53438;48.898;2.308;2023-05-13T09:32:37;15.37;76.25
66582;SHT31;53438;48.898;2.308;2023-05-13T09:35:14;15.39;76.44
66582;SHT31;53438;48.898;2.308;2023-05-13T09:37:46;15.60;76.12
66582;SHT31;53438;48.898;2.308;2023-05-13T09:40:13;15.82;75.42
66582;SHT31;53438;48.898;2.308;2023-05-13T09:42:43;15.91;74.66
66582;SHT31;53438;48.898;2.308;2023-05-13T09:45:10;15.68;74.31
66582;SHT31;53438;48.898;2.308;2023-05-13T09:47:35;15.77;73.93
66582;SHT31;53438;48.898;2.308;2023-05-13T09:50:02;15.98;73.89
66582;SHT31;53438;48.898;2.308;2023-05-13T09:52:32;16.22;73.38
66582;SHT31;53438;48.898;2.308;2023-05-13T09:54:58;16.50;71.81
66582;SHT31;53438;48.898;2.308;2023-05-13T09:57:27;16.50;71.56
66582;SHT31;53438;48.898;2.308;2023-05-13T09:59:59;16.59;71.31
66582;SHT31;53438;48.898;2.308;2023-05-13T10:02:25;16.61;71.62
66582;SHT31;53438;48.898;2.308;2023-05-13T10:04:52;16.66;71.57
66582;SHT31;53438;48.898;2.308;2023-05-13T10:07:18;16.80;71.01
66582;SHT31;53438;48.898;2.308;2023-05-13T10:09:50;16.88;70.67
66582;SHT31;53438;48.898;2.308;2023-05-13T10:12:19;16.16;72.73
66582;SHT31;53438;48.898;2.308;2023-05-13T10:14:46;16.38;72.57
66582;SHT31;53438;48.898;2.308;2023-05-13T10:17:13;16.43;72.13
66582;SHT31;53438;48.898;2.308;2023-05-13T10:19:39;16.39;72.51
66582;SHT31;53438;48.898;2.308;2023-05-13T10:22:05;16.43;72.38
66582;SHT31;53438;48.898;2.308;2023-05-13T10:24:31;16.25;72.59
66582;SHT31;53438;48.898;2.308;2023-05-13T10:26:57;16.20;73.38
66582;SHT31;53438;48.898;2.308;2023-05-13T10:29:23;15.97;74.14
66582;SHT31;53438;48.898;2.308;2023-05-13T10:31:49;16.08;73.88
66582;SHT31;53438;48.898;2.308;2023-05-13T10:34:15;16.05;73.87
66582;SHT31;53438;48.898;2.308;2023-05-13T10:44:37;16.43;72.99
66582;SHT31;53438;48.898;2.308;2023-05-13T10:47:02;16.36;72.20
66582;SHT31;53438;48.898;2.308;2023-05-13T10:49:34;16.30;71.89
66582;SHT31;53438;48.898;2.308;2023-05-13T10:52:04;16.29;71.89
66582;SHT31;53438;48.898;2.308;2023-05-13T10:54:36;16.42;71.79
66582;SHT31;53438;48.898;2.308;2023-05-13T10:57:02;16.57;71.21
66582;SHT31;53438;48.898;2.308;2023-05-13T10:59:28;16.63;70.20
66582;SHT31;53438;48.898;2.308;2023-05-13T11:01:55;16.91;70.04
66582;SHT31;53438;48.898;2.308;2023-05-13T11:04:20;16.83;70.46
66582;SHT31;53438;48.898;2.308;2023-05-13T11:06:47;16.80;70.65
66582;SHT31;53438;48.898;2.308;2023-05-13T11:11:52;16.66;71.17
66582;SHT31;53438;48.898;2.308;2023-05-13T11:14:19;16.87;71.00
66582;SHT31;53438;48.898;2.308;2023-05-13T11:16:51;16.91;70.30
66582;SHT31;53438;48.898;2.308;2023-05-13T11:19:24;17.03;70.65
66582;SHT31;53438;48.898;2.308;2023-05-13T11:21:52;17.18;69.99
66582;SHT31;53438;48.898;2.308;2023-05-13T11:24:19;17.35;69.45
66582;SHT31;53438;48.898;2.308;2023-05-13T11:26:46;17.52;69.20
66582;SHT31;53438;48.898;2.308;2023-05-13T11:29:12;17.65;68.95
66582;SHT31;53438;48.898;2.308;2023-05-13T11:31:49;17.85;68.37
66582;SHT31;53438;48.898;2.308;2023-05-13T11:34:16;17.94;67.93
66582;SHT31;53438;48.898;2.308;2023-05-13T11:36:48;18.13;67.96
66582;SHT31;53438;48.898;2.308;2023-05-13T11:39:16;18.36;67.21
66582;SHT31;53438;48.898;2.308;2023-05-13T11:41:44;18.17;67.04
66582;SHT31;53438;48.898;2.308;2023-05-13T11:44:11;18.34;67.03
66582;SHT31;53438;48.898;2.308;2023-05-13T11:46:37;18.54;66.37
66582;SHT31;53438;48.898;2.308;2023-05-13T11:49:02;18.73;65.69
66582;SHT31;53438;48.898;2.308;2023-05-13T11:51:28;18.75;65.81
66582;SHT31;53438;48.898;2.308;2023-05-13T11:54:02;19.06;65.40
66582;SHT31;53438;48.898;2.308;2023-05-13T11:56:28;19.00;64.92
66582;SHT31;53438;48.898;2.308;2023-05-13T11:58:54;19.08;64.81
66582;SHT31;53438;48.898;2.308;2023-05-13T12:01:20;19.05;64.95
66582;SHT31;53438;48.898;2.308;2023-05-13T12:03:46;19.23;64.55
66582;SHT31;53438;48.898;2.308;2023-05-13T12:06:12;19.47;64.92
66582;SHT31;53438;48.898;2.308;2023-05-13T12:08:44;19.57;64.28
66582;SHT31;53438;48.898;2.308;2023-05-13T12:11:11;19.58;63.77
66582;SHT31;53438;48.898;2.308;2023-05-13T12:13:40;19.61;62.79
66582;SHT31;53438;48.898;2.308;2023-05-13T12:16:06;19.70;62.96
66582;SHT31;53438;48.898;2.308;2023-05-13T12:18:32;19.79;62.22
66582;SHT31;53438;48.898;2.308;2023-05-13T12:20:58;19.95;61.63
66582;SHT31;53438;48.898;2.308;2023-05-13T12:23:24;19.75;62.04
66582;SHT31;53438;48.898;2.308;2023-05-13T12:25:49;19.94;61.07
66582;SHT31;53438;48.898;2.308;2023-05-13T12:28:23;19.82;61.42
66582;SHT31;53438;48.898;2.308;2023-05-13T12:30:53;19.89;59.35
66582;SHT31;53438;48.898;2.308;2023-05-13T12:33:22;19.91;58.88
66582;SHT31;53438;48.898;2.308;2023-05-13T12:35:50;19.92;59.91
66582;SHT31;53438;48.898;2.308;2023-05-13T12:38:18;20.01;59.86
66582;SHT31;53438;48.898;2.308;2023-05-13T12:40:47;20.15;59.08
66582;SHT31;53438;48.898;2.308;2023-05-13T12:43:15;20.07;58.65
66582;SHT31;53438;48.898;2.308;2023-05-13T12:45:41;20.29;56.42
66582;SHT31;53438;48.898;2.308;2023-05-13T12:48:07;20.52;55.09
66582;SHT31;53438;48.898;2.308;2023-05-13T12:50:32;20.46;54.29
66582;SHT31;53438;48.898;2.308;2023-05-13T12:52:58;20.55;53.84
66582;SHT31;53438;48.898;2.308;2023-05-13T12:55:24;20.55;53.21
66582;SHT31;53438;48.898;2.308;2023-05-13T13:00:20;20.65;53.79
66582;SHT31;53438;48.898;2.308;2023-05-13T13:02:46;20.87;52.05
66582;SHT31;53438;48.898;2.308;2023-05-13T13:05:11;20.83;52.33
66582;SHT31;53438;48.898;2.308;2023-05-13T13:07:37;20.69;53.68
66582;SHT31;53438;48.898;2.308;2023-05-13T13:10:04;20.91;53.32
66582;SHT31;53438;48.898;2.308;2023-05-13T13:12:30;20.91;48.07
66582;SHT31;53438;48.898;2.308;2023-05-13T13:14:55;20.88;48.73
66582;SHT31;53438;48.898;2.308;2023-05-13T13:17:21;20.87;48.65
66582;SHT31;53438;48.898;2.308;2023-05-13T13:19:47;21.00;50.13
66582;SHT31;53438;48.898;2.308;2023-05-13T13:22:12;20.97;50.59
66582;SHT31;53438;48.898;2.308;2023-05-13T13:24:37;20.90;51.61
66582;SHT31;53438;48.898;2.308;2023-05-13T13:27:03;20.80;52.22
66582;SHT31;53438;48.898;2.308;2023-05-13T13:29:28;20.96;51.70
66582;SHT31;53438;48.898;2.308;2023-05-13T13:31:53;20.98;51.04
66582;SHT31;53438;48.898;2.308;2023-05-13T13:34:19;21.10;50.92
66582;SHT31;53438;48.898;2.308;2023-05-13T13:36:44;21.12;49.90
66582;SHT31;53438;48.898;2.308;2023-05-13T13:39:10;21.10;50.29
66582;SHT31;53438;48.898;2.308;2023-05-13T13:41:36;21.00;50.68
66582;SHT31;53438;48.898;2.308;2023-05-13T13:44:01;21.03;51.25
66582;SHT31;53438;48.898;2.308;2023-05-13T13:46:26;21.31;50.95
66582;SHT31;53438;48.898;2.308;2023-05-13T13:48:52;21.05;52.39
66582;SHT31;53438;48.898;2.308;2023-05-13T13:51:17;21.08;51.03
66582;SHT31;53438;48.898;2.308;2023-05-13T13:53:43;21.10;50.59
66582;SHT31;53438;48.898;2.308;2023-05-13T13:56:08;21.00;50.74
66582;SHT31;53438;48.898;2.308;2023-05-13T13:58:33;21.23;50.81
66582;SHT31;53438;48.898;2.308;2023-05-13T14:00:59;21.28;51.08
66582;SHT31;53438;48.898;2.308;2023-05-13T14:03:24;21.44;50.07
66582;SHT31;53438;48.898;2.308;2023-05-13T14:05:49;21.65;48.41
66582;SHT31;53438;48.898;2.308;2023-05-13T14:08:16;21.52;48.35
66582;SHT31;53438;48.898;2.308;2023-05-13T14:10:41;21.51;46.67
66582;SHT31;53438;48.898;2.308;2023-05-13T14:13:06;21.46;46.26
66582;SHT31;53438;48.898;2.308;2023-05-13T14:15:32;21.58;44.71
66582;SHT31;53438;48.898;2.308;2023-05-13T14:17:57;21.59;45.68
66582;SHT31;53438;48.898;2.308;2023-05-13T14:20:23;21.61;45.59
66582;SHT31;53438;48.898;2.308;2023-05-13T14:22:52;21.79;42.83
66582;SHT31;53438;48.898;2.308;2023-05-13T14:25:18;21.89;43.59
66582;SHT31;53438;48.898;2.308;2023-05-13T14:27:44;21.93;43.04
66582;SHT31;53438;48.898;2.308;2023-05-13T14:30:09;22.00;43.74
66582;SHT31;53438;48.898;2.308;2023-05-13T14:32:36;22.03;45.48
66582;SHT31;53438;48.898;2.308;2023-05-13T14:35:01;22.00;46.86
66582;SHT31;53438;48.898;2.308;2023-05-13T14:37:27;22.13;47.41
66582;SHT31;53438;48.898;2.308;2023-05-13T14:39:52;22.14;47.16
66582;SHT31;53438;48.898;2.308;2023-05-13T14:42:18;21.99;46.62
66582;SHT31;53438;48.898;2.308;2023-05-13T14:44:43;22.03;46.28
66582;SHT31;53438;48.898;2.308;2023-05-13T14:47:09;22.04;47.31
66582;SHT31;53438;48.898;2.308;2023-05-13T14:49:34;22.03;46.35
66582;SHT31;53438;48.898;2.308;2023-05-13T14:52:00;22.12;46.43
66582;SHT31;53438;48.898;2.308;2023-05-13T14:54:25;22.27;46.94
66582;SHT31;53438;48.898;2.308;2023-05-13T14:56:51;22.44;46.53
66582;SHT31;53438;48.898;2.308;2023-05-13T14:59:17;22.44;44.18
66582;SHT31;53438;48.898;2.308;2023-05-13T15:01:42;22.54;44.31
66582;SHT31;53438;48.898;2.308;2023-05-13T15:04:08;22.64;43.91
66582;SHT31;53438;48.898;2.308;2023-05-13T15:06:35;22.65;44.04
66582;SHT31;53438;48.898;2.308;2023-05-13T15:09:01;22.78;44.30
66582;SHT31;53438;48.898;2.308;2023-05-13T15:11:26;22.71;44.83
66582;SHT31;53438;48.898;2.308;2023-05-13T15:13:52;22.81;44.58
66582;SHT31;53438;48.898;2.308;2023-05-13T15:16:17;22.87;44.12
66582;SHT31;53438;48.898;2.308;2023-05-13T15:18:43;22.74;44.74
66582;SHT31;53438;48.898;2.308;2023-05-13T15:21:08;22.98;45.44
66582;SHT31;53438;48.898;2.308;2023-05-13T15:23:33;23.03;45.88
66582;SHT31;53438;48.898;2.308;2023-05-13T15:25:59;23.08;46.33
66582;SHT31;53438;48.898;2.308;2023-05-13T15:28:24;22.95;45.50
66582;SHT31;53438;48.898;2.308;2023-05-13T15:30:49;22.79;45.17
66582;SHT31;53438;48.898;2.308;2023-05-13T15:33:15;22.61;45.25
66582;SHT31;53438;48.898;2.308;2023-05-13T15:35:40;22.88;44.56
66582;SHT31;53438;48.898;2.308;2023-05-13T15:38:06;23.05;44.96
66582;SHT31;53438;48.898;2.308;2023-05-13T15:40:32;23.09;45.66
66582;SHT31;53438;48.898;2.308;2023-05-13T15:42:57;22.95;46.90
66582;SHT31;53438;48.898;2.308;2023-05-13T15:45:22;23.06;47.08
66582;SHT31;53438;48.898;2.308;2023-05-13T15:47:48;23.05;47.12
66582;SHT31;53438;48.898;2.308;2023-05-13T15:50:13;23.08;47.17
66582;SHT31;53438;48.898;2.308;2023-05-13T15:52:39;23.20;46.60
66582;SHT31;53438;48.898;2.308;2023-05-13T15:55:05;23.11;47.47
66582;SHT31;53438;48.898;2.308;2023-05-13T15:57:30;22.75;48.39
66582;SHT31;53438;48.898;2.308;2023-05-13T15:59:55;22.58;49.49
66582;SHT31;53438;48.898;2.308;2023-05-13T16:02:21;22.32;50.59
66582;SHT31;53438;48.898;2.308;2023-05-13T16:04:46;22.13;50.65
66582;SHT31;53438;48.898;2.308;2023-05-13T16:07:11;22.18;50.65
66582;SHT31;53438;48.898;2.308;2023-05-13T16:09:38;22.13;50.09
66582;SHT31;53438;48.898;2.308;2023-05-13T16:12:04;22.00;49.56
66582;SHT31;53438;48.898;2.308;2023-05-13T16:14:29;22.00;50.26
66582;SHT31;53438;48.898;2.308;2023-05-13T16:16:55;21.93;50.70
66582;SHT31;53438;48.898;2.308;2023-05-13T16:19:21;21.69;52.60
66582;SHT31;53438;48.898;2.308;2023-05-13T16:21:47;21.67;52.95
66582;SHT31;53438;48.898;2.308;2023-05-13T16:24:12;21.58;53.45
66582;SHT31;53438;48.898;2.308;2023-05-13T16:26:38;21.32;54.58
66582;SHT31;53438;48.898;2.308;2023-05-13T16:29:03;21.34;54.85
66582;SHT31;53438;48.898;2.308;2023-05-13T16:31:28;21.41;55.04
66582;SHT31;53438;48.898;2.308;2023-05-13T16:33:54;21.37;54.93
66582;SHT31;53438;48.898;2.308;2023-05-13T16:36:19;21.37;53.79
66582;SHT31;53438;48.898;2.308;2023-05-13T16:38:44;21.14;49.36
66582;SHT31;53438;48.898;2.308;2023-05-13T16:41:10;20.39;50.18
66582;SHT31;53438;48.898;2.308;2023-05-13T16:43:36;20.11;51.61
66582;SHT31;53438;48.898;2.308;2023-05-13T16:46:01;19.95;51.36
66582;SHT31;53438;48.898;2.308;2023-05-13T16:48:26;20.05;51.17
66582;SHT31;53438;48.898;2.308;2023-05-13T16:50:52;19.85;51.70
66582;SHT31;53438;48.898;2.308;2023-05-13T16:53:17;19.53;52.42
66582;SHT31;53438;48.898;2.308;2023-05-13T16:55:46;19.45;53.00
66582;SHT31;53438;48.898;2.308;2023-05-13T16:58:14;19.13;53.50
66582;SHT31;53438;48.898;2.308;2023-05-13T17:00:39;18.91;54.48
66582;SHT31;53438;48.898;2.308;2023-05-13T17:03:05;18.86;55.16
66582;SHT31;53438;48.898;2.308;2023-05-13T17:05:30;18.86;54.62
66582;SHT31;53438;48.898;2.308;2023-05-13T17:07:56;18.89;54.27
66582;SHT31;53438;48.898;2.308;2023-05-13T17:10:21;18.85;55.13
66582;SHT31;53438;48.898;2.308;2023-05-13T17:12:46;18.38;56.04
66582;SHT31;53438;48.898;2.308;2023-05-13T17:15:12;18.49;56.49
66582;SHT31;53438;48.898;2.308;2023-05-13T17:17:37;18.40;56.85
66582;SHT31;53438;48.898;2.308;2023-05-13T17:20:03;18.23;58.02
66582;SHT31;53438;48.898;2.308;2023-05-13T17:22:29;18.10;58.20
66582;SHT31;53438;48.898;2.308;2023-05-13T17:24:54;18.01;58.73
66582;SHT31;53438;48.898;2.308;2023-05-13T17:27:20;17.96;58.99
66582;SHT31;53438;48.898;2.308;2023-05-13T17:29:45;17.91;59.33
66582;SHT31;53438;48.898;2.308;2023-05-13T17:32:11;17.94;59.70
66582;SHT31;53438;48.898;2.308;2023-05-13T17:34:37;18.09;59.36
66582;SHT31;53438;48.898;2.308;2023-05-13T17:37:02;17.99;59.77
66582;SHT31;53438;48.898;2.308;2023-05-13T17:39:28;17.99;59.85
66582;SHT31;53438;48.898;2.308;2023-05-13T17:41:53;18.00;59.86
66582;SHT31;53438;48.898;2.308;2023-05-13T17:44:18;17.91;60.49
66582;SHT31;53438;48.898;2.308;2023-05-13T17:46:44;17.96;59.97
66582;SHT31;53438;48.898;2.308;2023-05-13T17:49:09;17.93;60.42
66582;SHT31;53438;48.898;2.308;2023-05-13T17:51:35;17.76;60.45
66582;SHT31;53438;48.898;2.308;2023-05-13T17:54:00;17.73;60.65
66582;SHT31;53438;48.898;2.308;2023-05-13T17:56:25;17.69;60.97
66582;SHT31;53438;48.898;2.308;2023-05-13T17:58:51;17.69;61.24
66582;SHT31;53438;48.898;2.308;2023-05-13T18:01:16;17.69;61.56
66582;SHT31;53438;48.898;2.308;2023-05-13T18:03:43;17.72;61.46
66582;SHT31;53438;48.898;2.308;2023-05-13T18:06:09;17.73;61.78
66582;SHT31;53438;48.898;2.308;2023-05-13T18:08:34;17.68;60.29
66582;SHT31;53438;48.898;2.308;2023-05-13T18:11:00;17.65;61.29
66582;SHT31;53438;48.898;2.308;2023-05-13T18:13:25;17.63;61.00
66582;SHT31;53438;48.898;2.308;2023-05-13T18:15:51;17.61;61.94
66582;SHT31;53438;48.898;2.308;2023-05-13T18:18:16;17.46;61.16
66582;SHT31;53438;48.898;2.308;2023-05-13T18:20:42;17.34;61.85
66582;SHT31;53438;48.898;2.308;2023-05-13T18:23:07;17.38;62.46
66582;SHT31;53438;48.898;2.308;2023-05-13T18:25:33;17.48;62.89
66582;SHT31;53438;48.898;2.308;2023-05-13T18:27:58;17.59;63.08
66582;SHT31;53438;48.898;2.308;2023-05-13T18:30:24;17.68;62.92
66582;SHT31;53438;48.898;2.308;2023-05-13T18:32:49;17.46;62.13
66582;SHT31;53438;48.898;2.308;2023-05-13T18:35:15;17.42;63.21